createdAt,value
2018-06-03T00:01:44.815Z,93.43
2018-06-03T00:04:13.435Z,93.80
2018-06-03T00:06:42.190Z,93.77
2018-06-03T00:09:10.765Z,93.92
2018-06-03T00:11:39.432Z,93.58
2018-06-03T00:14:08.084Z,93.91
2018-06-03T00:16:36.802Z,93.46
2018-06-03T00:19:05.496Z,93.56
2018-06-03T00:21:43.747Z,93.78
2018-06-03T00:24:12.264Z,92.82
2018-06-03T00:26:43.804Z,93.39
2018-06-03T00:29:12.965Z,93.84
2018-06-03T00:31:41.772Z,94.41
2018-06-03T00:34:10.704Z,94.51
2018-06-03T00:36:43.837Z,94.42
2018-06-03T00:39:12.981Z,94.71
2018-06-03T00:41:42.161Z,95.21
2018-06-03T00:44:11.329Z,95.06
2018-06-03T00:46:40.307Z,95.92
2018-06-03T00:49:09.401Z,96.20
2018-06-03T00:51:38.410Z,96.48
2018-06-03T00:54:07.231Z,96.76
2018-06-03T00:56:47.890Z,96.92
2018-06-03T00:59:16.714Z,96.41
2018-06-03T01:01:45.654Z,96.48
2018-06-03T01:04:14.723Z,96.69
2018-06-03T01:06:43.624Z,97.22
2018-06-03T01:09:12.733Z,97.45
2018-06-03T01:11:41.838Z,97.62
2018-06-03T01:14:10.685Z,97.39
2018-06-03T01:16:40.013Z,97.31
2018-06-03T01:19:10.662Z,97.03
2018-06-03T01:21:39.865Z,96.66
2018-06-03T01:24:09.299Z,96.55
2018-06-03T01:26:38.464Z,97.04
2018-06-03T01:29:07.301Z,96.55
2018-06-03T01:31:36.261Z,96.48
2018-06-03T01:34:05.218Z,96.50
2018-06-03T01:36:34.451Z,96.14
2018-06-03T01:39:03.428Z,96.71
2018-06-03T01:41:32.511Z,96.94
2018-06-03T01:44:01.607Z,96.38
2018-06-03T01:46:30.674Z,95.47
2018-06-03T01:48:59.610Z,95.98
2018-06-03T01:51:28.544Z,95.65
2018-06-03T01:53:57.655Z,95.58
2018-06-03T01:56:26.796Z,95.51
2018-06-03T01:58:55.659Z,95.38
2018-06-03T02:01:24.720Z,94.65
2018-06-03T02:03:53.900Z,95.12
2018-06-03T02:06:22.854Z,95.43
2018-06-03T02:08:51.908Z,96.22
2018-06-03T02:11:21.059Z,96.36
2018-06-03T02:13:50.218Z,96.83
2018-06-03T02:16:19.332Z,96.01
2018-06-03T02:18:48.255Z,97.06
2018-06-03T02:21:17.416Z,96.98
2018-06-03T02:23:46.447Z,97.57
2018-06-03T02:26:15.385Z,97.92
2018-06-03T02:28:44.480Z,97.35
2018-06-03T02:31:13.541Z,96.51
2018-06-03T02:33:42.449Z,97.03
2018-06-03T02:36:11.376Z,97.63
2018-06-03T02:38:40.381Z,97.37
2018-06-03T02:41:09.388Z,98.08
2018-06-03T02:43:38.450Z,97.88
2018-06-03T02:46:07.689Z,97.35
2018-06-03T02:48:36.699Z,97.42
2018-06-03T02:51:05.844Z,97.34
2018-06-03T02:53:34.885Z,96.27
2018-06-03T02:56:03.786Z,96.26
2018-06-03T02:58:32.678Z,96.63
2018-06-03T03:01:01.497Z,96.98
2018-06-03T03:03:30.449Z,97.19
2018-06-03T03:05:59.338Z,96.76
2018-06-03T03:08:28.297Z,97.15
2018-06-03T03:10:58.024Z,97.07
2018-06-03T03:13:26.975Z,96.67
2018-06-03T03:15:56.243Z,96.84
2018-06-03T03:18:25.156Z,97.72
2018-06-03T03:20:54.045Z,97.02
2018-06-03T03:23:23.206Z,97.94
2018-06-03T03:25:52.158Z,96.49
2018-06-03T03:28:21.272Z,95.58
2018-06-03T03:30:50.378Z,96.49
2018-06-03T03:33:19.482Z,96.54
2018-06-03T03:35:48.303Z,94.91
2018-06-03T03:38:17.900Z,94.04
2018-06-03T03:40:47.026Z,93.13
2018-06-03T03:43:16.094Z,92.57
2018-06-03T03:45:45.341Z,91.77
2018-06-03T03:48:14.241Z,91.70
2018-06-03T03:50:43.285Z,90.77
2018-06-03T03:53:12.434Z,90.37
2018-06-03T03:55:41.678Z,90.52
2018-06-03T03:58:10.567Z,89.78
2018-06-03T04:00:39.368Z,89.44
2018-06-03T04:03:08.200Z,89.09
2018-06-03T04:05:37.363Z,88.64
2018-06-03T04:08:07.062Z,88.23
2018-06-03T04:10:36.254Z,89.63
2018-06-03T04:13:05.279Z,88.99
2018-06-03T04:15:34.264Z,89.19
2018-06-03T04:18:03.086Z,89.44
2018-06-03T04:20:32.204Z,89.35
2018-06-03T04:23:01.276Z,90.63
2018-06-03T04:25:30.291Z,90.62
2018-06-03T04:27:59.184Z,90.75
2018-06-03T04:30:28.205Z,91.02
2018-06-03T04:32:57.442Z,91.11
2018-06-03T04:35:26.655Z,91.07
2018-06-03T04:37:55.655Z,91.07
2018-06-03T04:40:24.542Z,90.84
2018-06-03T04:42:53.674Z,91.58
2018-06-03T04:45:22.832Z,90.42
2018-06-03T04:47:51.660Z,89.89
2018-06-03T04:50:20.661Z,89.61
2018-06-03T04:52:49.653Z,89.75
2018-06-03T04:55:18.495Z,87.62
2018-06-03T04:57:47.532Z,88.68
2018-06-03T05:00:17.380Z,89.80
2018-06-03T05:02:46.459Z,89.21
2018-06-03T05:05:15.399Z,88.69
2018-06-03T05:07:44.372Z,86.86
2018-06-03T05:10:13.394Z,87.79
2018-06-03T05:12:42.439Z,86.11
2018-06-03T05:15:11.383Z,86.40
2018-06-03T05:17:40.265Z,84.94
2018-06-03T05:20:09.111Z,82.46
2018-06-03T05:22:38.076Z,81.83
2018-06-03T05:25:07.258Z,80.15
2018-06-03T05:27:36.097Z,79.83
2018-06-03T05:30:05.039Z,80.03
2018-06-03T05:32:34.071Z,79.10
2018-06-03T05:35:03.016Z,79.21
2018-06-03T05:37:32.136Z,78.28
2018-06-03T05:40:01.167Z,77.35
2018-06-03T05:42:30.142Z,77.73
2018-06-03T05:44:58.978Z,77.11
2018-06-03T05:47:27.844Z,76.39
2018-06-03T05:49:56.771Z,76.83
2018-06-03T05:52:25.696Z,76.60
2018-06-03T05:54:54.917Z,74.67
2018-06-03T05:57:24.019Z,74.31
2018-06-03T05:59:53.000Z,75.76
2018-06-03T06:02:21.884Z,75.80
2018-06-03T06:04:50.956Z,76.76
2018-06-03T06:07:20.094Z,76.80
2018-06-03T06:09:48.892Z,77.26
2018-06-03T06:12:17.729Z,77.47
2018-06-03T06:14:46.695Z,77.30
2018-06-03T06:17:15.722Z,77.38
2018-06-03T06:19:44.632Z,76.47
2018-06-03T06:22:13.611Z,73.18
2018-06-03T06:24:42.404Z,74.23
2018-06-03T06:27:12.098Z,73.41
2018-06-03T06:29:41.049Z,71.95
2018-06-03T06:32:10.080Z,68.68
2018-06-03T06:34:39.246Z,65.28
2018-06-03T06:37:08.389Z,67.68
2018-06-03T06:39:37.437Z,67.71
2018-06-03T06:42:06.477Z,70.02
2018-06-03T06:44:35.353Z,68.23
2018-06-03T06:47:04.352Z,67.21
2018-06-03T06:49:33.472Z,66.69
2018-06-03T06:52:02.304Z,65.51
2018-06-03T06:54:31.296Z,66.33
2018-06-03T06:57:00.333Z,64.80
2018-06-03T06:59:29.524Z,65.51
2018-06-03T07:01:58.441Z,62.67
2018-06-03T07:04:27.490Z,64.25
2018-06-03T07:06:56.472Z,62.72
2018-06-03T07:09:25.309Z,62.33
2018-06-03T07:11:54.180Z,62.23
2018-06-03T07:14:23.034Z,61.93
2018-06-03T07:16:52.100Z,61.56
2018-06-03T07:19:21.273Z,60.28
2018-06-03T07:21:50.087Z,58.39
2018-06-03T07:24:18.982Z,59.85
2018-06-03T07:26:47.918Z,59.14
2018-06-03T07:29:16.734Z,57.65
2018-06-03T07:31:45.587Z,58.28
2018-06-03T07:34:14.638Z,55.65
2018-06-03T07:36:44.616Z,55.63
2018-06-03T07:39:13.777Z,54.84
2018-06-03T07:41:42.804Z,53.63
2018-06-03T07:44:11.848Z,54.76
2018-06-03T07:46:40.696Z,56.75
2018-06-03T07:49:09.771Z,54.24
2018-06-03T07:51:38.837Z,55.00
2018-06-03T07:54:08.067Z,56.77
2018-06-03T07:56:36.902Z,56.89
2018-06-03T07:59:05.959Z,56.16
2018-06-03T08:01:34.867Z,56.31
2018-06-03T08:04:03.774Z,55.15
2018-06-03T08:06:32.847Z,54.50
2018-06-03T08:09:01.900Z,52.96
2018-06-03T08:11:31.053Z,51.35
2018-06-03T08:13:59.928Z,51.98
2018-06-03T08:16:29.101Z,52.29
2018-06-03T08:18:58.235Z,51.86
2018-06-03T08:21:27.073Z,47.61
2018-06-03T08:23:56.172Z,47.32
2018-06-03T08:26:26.032Z,47.14
2018-06-03T08:28:55.020Z,49.05
2018-06-03T08:31:23.966Z,50.20
2018-06-03T08:33:53.088Z,49.75
2018-06-03T08:36:21.965Z,49.25
2018-06-03T08:38:51.022Z,48.91
2018-06-03T08:41:19.983Z,49.73
2018-06-03T08:43:49.043Z,48.57
2018-06-03T08:46:18.180Z,48.22
2018-06-03T08:48:47.340Z,46.78
2018-06-03T08:51:16.245Z,44.20
2018-06-03T08:53:45.274Z,46.33
2018-06-03T08:56:14.361Z,49.00
2018-06-03T08:58:43.266Z,52.09
2018-06-03T09:01:12.206Z,52.06
2018-06-03T09:03:41.390Z,53.51
2018-06-03T09:06:10.302Z,54.71
2018-06-03T09:08:39.336Z,54.95
2018-06-03T09:11:08.394Z,55.59
2018-06-03T09:13:37.460Z,55.85
2018-06-03T09:16:06.525Z,57.82
2018-06-03T09:18:35.664Z,57.35
2018-06-03T09:21:04.564Z,58.16
2018-06-03T09:23:33.528Z,58.20
2018-06-03T09:26:02.472Z,59.11
2018-06-03T09:28:31.336Z,60.41
2018-06-03T09:31:06.281Z,58.89
2018-06-03T09:33:35.206Z,59.88
2018-06-03T09:36:04.094Z,60.22
2018-06-03T09:38:32.979Z,62.01
2018-06-03T09:41:02.068Z,60.89
2018-06-03T09:43:30.916Z,61.11
2018-06-03T09:45:59.848Z,61.20
2018-06-03T09:48:28.761Z,60.80
2018-06-03T09:50:57.802Z,60.64
2018-06-03T09:53:26.776Z,60.62
2018-06-03T09:55:55.626Z,60.17
2018-06-03T09:58:24.639Z,58.11
2018-06-03T10:00:53.509Z,58.05
2018-06-03T10:03:22.423Z,57.92
2018-06-03T10:05:51.362Z,58.67
2018-06-03T10:08:20.446Z,59.72
2018-06-03T10:10:49.427Z,58.02
2018-06-03T10:13:18.318Z,59.52
2018-06-03T10:15:48.180Z,59.47
2018-06-03T10:18:17.138Z,60.43
2018-06-03T10:20:46.033Z,60.15
2018-06-03T10:23:14.892Z,58.88
2018-06-03T10:25:43.924Z,57.79
2018-06-03T10:28:13.010Z,57.98
2018-06-03T10:30:41.752Z,56.56
2018-06-03T10:33:10.668Z,57.81
2018-06-03T10:35:39.830Z,57.80
2018-06-03T10:38:08.699Z,56.60
2018-06-03T10:40:37.508Z,58.51
2018-06-03T10:43:06.561Z,58.99
2018-06-03T10:45:35.468Z,59.24
2018-06-03T10:48:04.318Z,59.47
2018-06-03T10:50:33.179Z,58.98
2018-06-03T10:53:01.981Z,59.65
2018-06-03T10:55:30.909Z,59.78
2018-06-03T10:57:59.947Z,60.31
2018-06-03T11:00:28.897Z,61.21
2018-06-03T11:02:57.947Z,59.81
2018-06-03T11:05:27.544Z,61.21
2018-06-03T11:07:56.575Z,60.07
2018-06-03T11:10:25.722Z,60.18
2018-06-03T11:12:54.829Z,59.95
2018-06-03T11:15:23.673Z,60.89
2018-06-03T11:17:52.727Z,59.47
2018-06-03T11:20:21.624Z,58.57
2018-06-03T11:22:56.778Z,61.98
2018-06-03T11:25:25.946Z,58.67
2018-06-03T11:27:55.237Z,58.58
2018-06-03T11:30:24.342Z,58.50
2018-06-03T11:32:53.293Z,59.08
2018-06-03T11:35:22.415Z,59.37
2018-06-03T11:37:51.739Z,59.07
2018-06-03T11:40:20.884Z,57.39
2018-06-03T11:42:49.878Z,57.78
2018-06-03T11:45:18.900Z,59.37
2018-06-03T11:47:48.109Z,60.16
2018-06-03T11:50:17.078Z,59.46
2018-06-03T11:52:46.116Z,60.32
2018-06-03T11:55:15.001Z,59.17
2018-06-03T11:57:45.020Z,58.75
2018-06-03T12:00:14.182Z,58.37
2018-06-03T12:02:43.177Z,58.37
2018-06-03T12:05:12.104Z,60.61
2018-06-03T12:07:41.101Z,60.63
2018-06-03T12:10:10.113Z,59.18
2018-06-03T12:12:38.976Z,58.92
2018-06-03T12:15:08.084Z,59.58
2018-06-03T12:17:37.054Z,59.48
2018-06-03T12:20:05.975Z,60.71
2018-06-03T12:23:10.881Z,60.49
2018-06-03T12:25:41.072Z,60.58
2018-06-03T12:28:11.252Z,61.07
2018-06-03T12:30:41.399Z,60.18
2018-06-03T12:33:11.592Z,60.05
2018-06-03T12:35:41.773Z,58.93
2018-06-03T12:38:11.933Z,58.58
2018-06-03T12:40:42.126Z,57.94
2018-06-03T12:43:12.268Z,57.18
2018-06-03T12:45:42.495Z,57.69
2018-06-03T12:48:12.804Z,57.33
2018-06-03T12:50:43.614Z,57.71
2018-06-03T12:53:13.867Z,58.38
2018-06-03T12:55:44.012Z,57.07
2018-06-03T12:58:14.974Z,56.86
2018-06-03T13:00:45.201Z,56.78
2018-06-03T13:03:15.736Z,55.28
2018-06-03T13:05:46.104Z,53.26
2018-06-03T13:08:16.368Z,51.81
2018-06-03T13:10:46.654Z,49.23
2018-06-03T13:13:17.002Z,46.34
2018-06-03T13:15:47.196Z,44.97
2018-06-03T13:18:17.177Z,47.33
2018-06-03T13:20:47.396Z,44.18
2018-06-03T13:23:17.581Z,44.56
2018-06-03T13:25:47.520Z,45.40
2018-06-03T13:28:17.357Z,45.60
2018-06-03T13:30:47.781Z,45.17
2018-06-03T13:33:17.609Z,43.97
2018-06-03T13:35:47.647Z,43.69
2018-06-03T13:38:17.478Z,43.21
2018-06-03T13:40:47.814Z,43.53
2018-06-03T13:43:18.109Z,43.81
2018-06-03T13:45:48.254Z,43.72
2018-06-03T13:48:18.596Z,44.11
2018-06-03T13:50:48.684Z,44.22
2018-06-03T13:53:18.772Z,43.84
2018-06-03T13:55:48.934Z,45.42
2018-06-03T13:58:18.714Z,47.43
2018-06-03T14:00:48.981Z,46.27
2018-06-03T14:03:19.317Z,45.03
2018-06-03T14:05:49.140Z,44.61
2018-06-03T14:08:19.438Z,46.42
2018-06-03T14:10:49.628Z,47.87
2018-06-03T14:13:19.981Z,48.79
2018-06-03T14:15:50.253Z,51.34
2018-06-03T14:18:20.220Z,51.74
2018-06-03T14:20:50.503Z,52.90
2018-06-03T14:23:20.597Z,54.51
2018-06-03T14:25:50.649Z,55.91
2018-06-03T14:28:20.986Z,57.11
2018-06-03T14:30:50.857Z,58.45
2018-06-03T14:33:20.895Z,59.68
2018-06-03T14:35:50.992Z,60.83
2018-06-03T14:38:21.199Z,63.07
2018-06-03T14:40:51.064Z,65.54
2018-06-03T14:43:20.991Z,67.38
2018-06-03T14:45:50.806Z,68.82
2018-06-03T14:48:20.753Z,68.54
2018-06-03T14:50:50.865Z,68.29
2018-06-03T14:53:20.568Z,68.96
2018-06-03T14:55:50.828Z,70.01
2018-06-03T14:58:21.132Z,69.24
2018-06-03T15:00:50.802Z,70.66
2018-06-03T15:03:20.800Z,69.62
2018-06-03T15:05:50.999Z,67.09
2018-06-03T15:08:20.896Z,66.38
2018-06-03T15:10:51.285Z,66.73
2018-06-03T15:13:21.245Z,65.65
2018-06-03T15:15:51.132Z,65.18
2018-06-03T15:18:21.102Z,65.28
2018-06-03T15:20:51.365Z,66.26
2018-06-03T15:23:21.549Z,68.18
2018-06-03T15:25:51.835Z,66.75
2018-06-03T15:28:21.561Z,68.53
2018-06-03T15:30:51.499Z,70.63
2018-06-03T15:33:21.467Z,70.42
2018-06-03T15:35:52.655Z,71.28
2018-06-03T15:38:22.732Z,71.47
2018-06-03T15:40:52.900Z,71.25
2018-06-03T15:43:23.068Z,71.97
2018-06-03T15:45:52.830Z,71.70
2018-06-03T15:48:22.640Z,71.25
2018-06-03T15:50:52.440Z,71.40
2018-06-03T15:53:22.156Z,70.33
2018-06-03T15:55:51.906Z,68.96
2018-06-03T15:58:21.800Z,69.38
2018-06-03T16:00:51.558Z,69.59
2018-06-03T16:03:21.896Z,68.69
2018-06-03T16:05:51.857Z,67.42
2018-06-03T16:08:21.727Z,67.26
2018-06-03T16:10:51.838Z,66.35
2018-06-03T16:13:21.581Z,65.53
2018-06-03T16:15:51.357Z,64.86
2018-06-03T16:18:22.481Z,65.56
2018-06-03T16:20:52.437Z,66.08
2018-06-03T16:23:22.245Z,66.02
2018-06-03T16:25:52.230Z,66.44
2018-06-03T16:28:21.924Z,66.90
2018-06-03T16:30:51.622Z,66.26
2018-06-03T16:33:21.567Z,65.42
2018-06-03T16:35:51.270Z,65.26
2018-06-03T16:38:20.958Z,65.43
2018-06-03T16:40:50.702Z,66.39
2018-06-03T16:43:20.614Z,66.03
2018-06-03T16:45:50.520Z,65.69
2018-06-03T16:48:20.193Z,65.03
2018-06-03T16:50:49.919Z,66.48
2018-06-03T16:53:20.157Z,66.60
2018-06-03T16:55:50.504Z,66.73
2018-06-03T16:58:20.275Z,66.47
2018-06-03T17:00:50.199Z,67.03
2018-06-03T17:03:20.062Z,65.34
2018-06-03T17:05:49.763Z,65.33
2018-06-03T17:08:19.678Z,65.45
2018-06-03T17:10:49.512Z,64.65
2018-06-03T17:13:19.246Z,59.86
2018-06-03T17:15:49.064Z,60.84
2018-06-03T17:18:18.782Z,60.51
2018-06-03T17:20:48.616Z,62.22
2018-06-03T17:23:18.356Z,63.62
2018-06-03T17:25:48.060Z,64.41
2018-06-03T17:28:17.782Z,64.74
2018-06-03T17:30:47.607Z,66.09
2018-06-03T17:33:17.409Z,66.03
2018-06-03T17:35:47.156Z,66.22
2018-06-03T17:38:16.950Z,67.75
2018-06-03T17:40:46.718Z,69.21
2018-06-03T17:43:16.542Z,68.05
2018-06-03T17:45:46.216Z,69.77
2018-06-03T17:48:16.024Z,71.05
2018-06-03T17:50:45.781Z,71.14
2018-06-03T17:53:15.484Z,71.35
2018-06-03T17:55:45.449Z,71.12
2018-06-03T17:58:15.212Z,72.99
2018-06-03T18:00:44.860Z,73.67
2018-06-03T18:03:14.760Z,74.09
2018-06-03T18:05:44.477Z,74.07
2018-06-03T18:08:14.329Z,72.26
2018-06-03T18:10:44.153Z,71.93
2018-06-03T18:13:13.917Z,72.75
2018-06-03T18:15:43.672Z,72.52
2018-06-03T18:18:13.425Z,74.00
2018-06-03T18:20:43.248Z,75.07
2018-06-03T18:23:12.947Z,75.96
2018-06-03T18:25:42.761Z,76.15
2018-06-03T18:28:12.505Z,74.88
2018-06-03T18:30:42.201Z,74.58
2018-06-03T18:33:11.912Z,76.20
2018-06-03T18:35:50.047Z,76.77
2018-06-03T18:38:25.581Z,76.90
2018-06-03T18:41:09.280Z,76.31
2018-06-03T18:43:47.595Z,76.68
2018-06-03T18:46:17.363Z,75.74
2018-06-03T18:48:49.769Z,74.94
2018-06-03T18:51:24.393Z,75.49
2018-06-03T18:53:56.122Z,76.39
2018-06-03T18:56:30.969Z,76.57
2018-06-03T18:59:00.796Z,77.35
2018-06-03T19:01:30.764Z,77.69
2018-06-03T19:04:00.546Z,78.70
2018-06-03T19:06:30.249Z,76.91
2018-06-03T19:09:00.308Z,78.76
2018-06-03T19:11:30.208Z,78.77
2018-06-03T19:14:00.232Z,78.69
2018-06-03T19:16:29.888Z,78.50
2018-06-03T19:18:59.593Z,78.92
2018-06-03T19:21:29.448Z,77.88
2018-06-03T19:23:59.217Z,76.92
2018-06-03T19:26:28.936Z,80.20
2018-06-03T19:28:58.765Z,81.50
2018-06-03T19:31:28.896Z,81.64
2018-06-03T19:33:58.680Z,82.39
2018-06-03T19:36:28.504Z,82.97
2018-06-03T19:38:58.141Z,81.46
2018-06-03T19:41:27.916Z,83.23
2018-06-03T19:43:57.672Z,81.36
2018-06-03T19:46:28.225Z,82.68
2018-06-03T19:48:58.056Z,79.18
2018-06-03T19:51:34.479Z,80.35
2018-06-03T19:54:18.394Z,82.28
2018-06-03T19:57:03.232Z,80.81
2018-06-03T19:59:33.047Z,81.29
2018-06-03T20:02:05.170Z,81.59
2018-06-03T20:04:48.551Z,81.18
2018-06-03T20:07:19.160Z,82.41
2018-06-03T20:09:48.959Z,82.12
2018-06-03T20:12:18.709Z,80.42
2018-06-03T20:14:48.476Z,79.34
2018-06-03T20:17:18.212Z,81.83
2018-06-03T20:19:48.102Z,81.56
2018-06-03T20:22:17.830Z,80.32
2018-06-03T20:24:47.494Z,79.79
2018-06-03T20:27:17.324Z,81.01
2018-06-03T20:29:47.056Z,81.61
2018-06-03T20:32:16.838Z,81.89
2018-06-03T20:34:46.932Z,82.71
2018-06-03T20:37:17.038Z,82.91
2018-06-03T20:39:46.780Z,82.83
2018-06-03T20:42:16.448Z,81.17
2018-06-03T20:44:46.248Z,80.43
2018-06-03T20:47:16.014Z,80.38
2018-06-03T20:49:45.899Z,81.25
2018-06-03T20:52:16.147Z,82.46
2018-06-03T20:54:45.956Z,82.06
2018-06-03T20:57:15.625Z,82.25
2018-06-03T20:59:45.382Z,81.77
2018-06-03T21:02:15.120Z,82.40
2018-06-03T21:04:44.904Z,82.21
2018-06-03T21:07:14.696Z,80.50
2018-06-03T21:09:44.476Z,80.85
2018-06-03T21:12:14.255Z,81.17
2018-06-03T21:14:44.259Z,80.33
2018-06-03T21:17:14.428Z,79.80
2018-06-03T21:19:44.441Z,77.56
2018-06-03T21:22:14.408Z,77.98
2018-06-03T21:24:44.341Z,77.03
2018-06-03T21:27:14.045Z,75.72
2018-06-03T21:29:43.800Z,75.21
2018-06-03T21:32:13.724Z,74.65
2018-06-03T21:34:43.813Z,72.78
2018-06-03T21:37:13.496Z,73.28
2018-06-03T21:39:43.481Z,71.56
2018-06-03T21:42:13.168Z,72.51
2018-06-03T21:44:43.201Z,71.80
2018-06-03T21:47:13.204Z,72.26
2018-06-03T21:49:43.261Z,72.45
2018-06-03T21:52:13.321Z,72.76
2018-06-03T21:54:43.392Z,72.38
2018-06-03T21:57:13.454Z,72.47
2018-06-03T21:59:43.185Z,72.16
2018-06-03T22:02:12.881Z,72.47
2018-06-03T22:04:42.576Z,72.02
2018-06-03T22:07:12.666Z,72.52
2018-06-03T22:09:42.749Z,73.09
2018-06-03T22:12:12.473Z,74.33
2018-06-03T22:14:42.860Z,74.88
2018-06-03T22:17:13.140Z,77.10
2018-06-03T22:19:43.464Z,78.34
2018-06-03T22:22:13.652Z,81.33
2018-06-03T22:24:43.704Z,83.62
2018-06-03T22:27:13.488Z,86.94
2018-06-03T22:29:43.509Z,88.35
2018-06-03T22:32:13.559Z,89.72
2018-06-03T22:34:43.315Z,89.30
2018-06-03T22:37:13.221Z,90.56
2018-06-03T22:39:42.901Z,91.07
2018-06-03T22:42:12.721Z,90.06
2018-06-03T22:44:42.472Z,89.83
2018-06-03T22:47:12.603Z,89.37
2018-06-03T22:49:42.451Z,90.00
2018-06-03T22:52:12.277Z,89.47
2018-06-03T22:54:42.279Z,88.71
2018-06-03T22:57:52.008Z,89.39
2018-06-03T23:00:31.081Z,89.58
2018-06-03T23:03:06.430Z,90.49
2018-06-03T23:05:36.962Z,90.64
2018-06-03T23:08:07.195Z,90.63
2018-06-03T23:10:37.500Z,90.83
2018-06-03T23:13:07.630Z,90.31
2018-06-03T23:15:37.541Z,89.65
2018-06-03T23:18:07.713Z,90.10
2018-06-03T23:20:37.734Z,89.80
2018-06-03T23:23:07.961Z,89.87
2018-06-03T23:25:38.193Z,89.86
2018-06-03T23:28:08.431Z,89.30
2018-06-03T23:30:38.337Z,88.93
2018-06-03T23:33:08.284Z,88.51
2018-06-03T23:35:38.190Z,87.69
2018-06-03T23:38:08.247Z,88.95
2018-06-03T23:40:38.669Z,88.96
2018-06-03T23:43:08.664Z,89.04
2018-06-03T23:45:38.606Z,89.17
2018-06-03T23:48:08.466Z,88.64
2018-06-03T23:50:38.440Z,87.22
2018-06-03T23:53:08.670Z,85.65
2018-06-03T23:55:38.919Z,85.95
2018-06-03T23:58:09.272Z,85.64
